Aérodrome :
LOGIN :

S'inscrire | Disclaimer

   EN    FR    IT 

 










Légende :    VFR   VFR Marginal   IFR   IFR Intensif   IFR Très Intensif
Visi : 
Plafond : 
>= 8 km
>= 3000ft
5 à 8 km
1000 à 3000 ft
1500m à 5 km
500 à 1000 ft
800 à 1500m
200 à 500 ft
< 800m
< 200 ft
Symboles :   Orages  Brouillard  Fortes neiges  Fortes précipitations  Vent > 20 kt
SIGMETs :   Divers  Orages  Givrage  Turbulence  Onde Orograph.  Cendres Volcan.






- Altitude de l'aérodrome : 1470 ft
- Code IATA : KLU


LOWK - Klagenfurt

DERNIER METAR :
  • 232020Z AUTO 31003KT 3900 -RASN SCT006 BKN013 00/M00 Q0996

METARs EXPIRÉS :
  • 231950Z AUTO VRB01KT 3900 -RASN BR FEW006 BKN012 00/00 Q0996
  • 231920Z AUTO VRB01KT 6000 -RASN FEW015 BKN019 00/M00 Q0996
  • 231850Z AUTO VRB01KT 5000 -SN FEW006 BKN013 00/00 Q0996
  • 231820Z AUTO VRB02KT 6000 -RASN FEW003 BKN014 00/M00 Q0996
  • 231750Z 29002KT 5000 -RASN FEW009 BKN016 01/00 Q0996 RERASN R10L/29//95 TEMPO 4000 SN BKN004

TAF TAF LOWK
Valide du 23 à 18h jusqu'au 24 à 18h UTC


231715Z 2318/2418 VRB02KT 8000 FEW004 SCT012 BKN030 TX03/2414Z TN00/2406Z
TEMPO 2318/2402 2000 SHRASN BKN004
TEMPO 2318/2402 1000 SHSN SHSNRA VV003
TEMPO 2400/2412 0300 FZFG FG VV002
TEMPO 2412/2418 3000 BCFG BKN010



MET'MAP, la Météo Aéronautique d'un coup d'oeil ! - Copyright ORBIFLY Décembre 2007 - Disclaimer

ORBIFLY MET'MAP TEAM :

Programmation & Développement : Alexandra Zaïnal
Sur une idée originale de : Baudouin d'Aumeries
Assistance à la programmation : Marc-Olivier Méhu
Soutien technique & logistique : Manuel Goepfert

Contact : metmap@orbifly.com




SOURCES & CREDITS :

   NOAA